Time;durP1;ratioP1;P1;durP2;ratioP2;P2;SDS_P1;SDS_P2;PMS_P1;PMS_P2;Temp;Humidity;BMP_temperature;BMP_pressure;BME280_temperature;BME280_humidity;BME280_pressure;Samples;Min_cycle;Max_cycle;Signal;HPM_P1;HPM_P2
2023/05/28 00:44:55;;;;;;;4.70;1.42;;;;;;;10.28;100.00;98786.53;15297823;19;20398;-82
2023/05/28 00:50:20;;;;;;;3.42;1.77;;;;;;;10.18;100.00;98791.97;15299134;19;20418;-83
2023/05/28 00:55:45;;;;;;;4.53;1.80;;;;;;;10.08;100.00;98793.88;15298927;19;20018;-82
2023/05/28 01:01:13;;;;;;;2.55;1.52;;;;;;;10.00;100.00;98786.53;15291830;19;20363;-83
2023/05/28 01:06:45;;;;;;;3.60;2.00;;;;;;;9.93;100.00;98774.66;15298867;19;20073;-82
2023/05/28 01:12:11;;;;;;;4.53;1.90;;;;;;;9.85;100.00;98773.56;15296046;19;20371;-81
2023/05/28 01:17:44;;;;;;;2.60;1.58;;;;;;;9.79;100.00;98757.16;15294168;19;20035;-82
2023/05/28 01:23:15;;;;;;;3.20;1.63;;;;;;;9.72;100.00;98759.56;15295376;19;20094;-83
2023/05/28 01:28:45;;;;;;;2.97;1.67;;;;;;;9.65;100.00;98755.78;15299331;19;20025;-82
2023/05/28 01:34:16;;;;;;;2.85;1.50;;;;;;;9.58;100.00;98754.69;15291270;19;20018;-83
2023/05/28 01:39:46;;;;;;;3.25;1.75;;;;;;;9.50;100.00;98747.34;15300310;19;20011;-84
2023/05/28 01:45:15;;;;;;;2.35;1.50;;;;;;;9.43;100.00;98752.47;15306831;19;20096;-84
2023/05/28 01:50:41;;;;;;;3.22;1.90;;;;;;;9.38;100.00;98749.34;15304364;19;20503;-84
2023/05/28 01:56:07;;;;;;;2.80;1.58;;;;;;;9.33;100.00;98746.28;15303234;19;20045;-83
2023/05/28 02:01:38;;;;;;;3.60;1.80;;;;;;;9.25;100.00;98744.31;15295800;19;20066;-84
2023/05/28 02:07:03;;;;;;;4.50;1.60;;;;;;;9.13;100.00;98740.91;15302691;19;20025;-84
2023/05/28 02:12:28;;;;;;;4.05;1.90;;;;;;;9.02;100.00;98736.56;15298418;19;20027;-84
2023/05/28 02:17:57;;;;;;;3.08;1.75;;;;;;;8.94;100.00;98748.03;15295480;19;20026;-83
2023/05/28 02:23:23;;;;;;;3.75;1.63;;;;;;;8.87;100.00;98741.53;15296730;19;20022;-85
2023/05/28 02:28:48;;;;;;;3.28;1.73;;;;;;;8.79;100.00;98736.00;15294182;19;20690;-83
2023/05/28 02:34:16;;;;;;;4.10;1.80;;;;;;;8.70;100.00;98748.44;15292215;19;20010;-84
2023/05/28 02:39:43;;;;;;;4.90;2.25;;;;;;;8.62;100.00;98745.63;15295476;19;20006;-84
2023/05/28 02:45:07;;;;;;;4.47;1.95;;;;;;;8.52;100.00;98744.78;15293257;19;20018;-83
2023/05/28 02:50:34;;;;;;;3.60;2.20;;;;;;;8.44;100.00;98750.81;15297647;19;20471;-84
2023/05/28 02:56:26;;;;;;;4.97;2.30;;;;;;;8.33;100.00;98752.63;15292891;19;20014;-83
2023/05/28 03:01:52;;;;;;;4.28;2.42;;;;;;;8.26;100.00;98743.44;15292941;19;20018;-84
2023/05/28 03:07:19;;;;;;;6.75;2.53;;;;;;;8.21;100.00;98748.38;15296771;19;20029;-84
2023/05/28 03:12:44;;;;;;;5.95;2.63;;;;;;;8.16;100.00;98750.63;15299402;19;20018;-84
2023/05/28 03:18:10;;;;;;;4.85;2.50;;;;;;;8.11;100.00;98760.91;15294566;19;20015;-85
2023/05/28 03:23:38;;;;;;;3.80;2.42;;;;;;;8.10;100.00;98769.94;15302884;19;20082;-85
2023/05/28 03:29:13;;;;;;;4.57;2.40;;;;;;;8.06;100.00;98774.75;15300387;19;20474;-85
2023/05/28 03:34:58;;;;;;;4.07;2.40;;;;;;;8.05;100.00;98774.91;15287327;19;20234;-84
2023/05/28 03:40:25;;;;;;;4.38;2.40;;;;;;;8.04;100.00;98765.16;15293350;19;20470;-85
2023/05/28 03:45:59;;;;;;;5.72;2.67;;;;;;;8.05;100.00;98777.59;15300023;19;20748;-83
2023/05/28 03:51:24;;;;;;;4.47;2.50;;;;;;;8.04;100.00;98775.88;15298839;19;20018;-84
2023/05/28 03:56:52;;;;;;;4.53;2.60;;;;;;;8.05;100.00;98772.22;15302075;19;20022;-84
2023/05/28 04:02:19;;;;;;;5.65;2.58;;;;;;;8.04;100.00;98775.88;15298499;19;20090;-83
2023/05/28 04:07:45;;;;;;;5.35;2.47;;;;;;;8.01;100.00;98759.06;15311756;19;20022;-85
2023/05/28 04:13:13;;;;;;;4.25;2.30;;;;;;;8.05;100.00;98756.13;15302307;19;20086;-84
2023/05/28 04:18:38;;;;;;;4.78;2.40;;;;;;;8.01;100.00;98751.00;15305123;19;20007;-81
2023/05/28 12:14:17;;;;;;;2.85;1.50;;;;;;;21.77;54.31;98625.50;15297394;19;20002;-83
2023/05/28 12:19:43;;;;;;;3.00;1.50;;;;;;;22.06;53.46;98613.97;15300902;19;20010;-85
2023/05/28 12:25:07;;;;;;;2.20;1.30;;;;;;;22.27;53.22;98618.94;15297076;19;20465;-83
2023/05/28 12:30:36;;;;;;;3.08;1.30;;;;;;;22.27;49.56;98623.59;15308650;19;20042;-84
2023/05/28 12:36:04;;;;;;;3.47;1.40;;;;;;;22.38;51.44;98627.44;15305284;19;20470;-84
2023/05/28 12:41:33;;;;;;;2.80;1.60;;;;;;;22.29;49.56;98621.44;15304041;19;20389;-85
2023/05/28 12:47:00;;;;;;;4.10;1.48;;;;;;;22.66;50.20;98626.00;15306367;19;20014;-85
2023/05/28 12:52:34;;;;;;;1.65;1.15;;;;;;;22.87;48.70;98624.63;15300061;19;20018;-82
2023/05/28 12:58:00;;;;;;;2.30;1.42;;;;;;;22.83;47.19;98621.50;15291229;19;20481;-82
2023/05/28 13:03:27;;;;;;;3.45;1.33;;;;;;;23.01;46.80;98615.06;15295170;19;20064;-82
2023/05/28 13:08:58;;;;;;;2.50;1.30;;;;;;;23.19;47.27;98618.78;15301319;19;20010;-82
2023/05/28 13:14:22;;;;;;;4.13;1.40;;;;;;;23.23;47.70;98609.00;15298495;19;20005;-83
2023/05/28 15:30:00;;;;;;;2.67;1.13;;;;;;;27.60;34.09;98553.88;15282885;19;20014;-84
2023/05/28 15:35:26;;;;;;;3.22;0.90;;;;;;;27.67;33.73;98543.41;15292642;19;20929;-81
2023/05/28 15:40:52;;;;;;;1.55;1.00;;;;;;;27.95;34.93;98538.50;15294491;19;20880;-83
2023/05/28 15:46:27;;;;;;;2.35;1.05;;;;;;;27.85;33.99;98544.00;15296290;19;20511;-83
2023/05/28 15:51:52;;;;;;;2.38;0.70;;;;;;;27.66;32.36;98547.28;15299682;19;20054;-83
2023/05/28 15:57:18;;;;;;;2.30;1.17;;;;;;;27.63;33.92;98538.69;15299313;19;20489;-83
2023/05/28 16:08:35;;;;;;;1.38;0.90;;;;;;;27.78;33.48;98537.91;15309424;19;20010;-84
2023/05/28 16:14:05;;;;;;;5.53;1.25;;;;;;;27.73;33.98;98535.09;15298535;19;20022;-83
2023/05/28 16:19:30;;;;;;;1.90;0.90;;;;;;;27.81;34.19;98529.88;15292313;19;20015;-81
2023/05/28 16:24:59;;;;;;;1.33;0.80;;;;;;;27.75;34.56;98527.38;15294026;19;20025;-83
2023/05/28 16:30:31;;;;;;;1.98;0.77;;;;;;;27.75;34.73;98522.69;15288938;19;20033;-86
2023/05/28 16:35:59;;;;;;;2.30;1.10;;;;;;;27.65;34.69;98515.16;15295479;19;20537;-82
2023/05/28 16:41:27;;;;;;;3.42;1.10;;;;;;;27.43;34.65;98520.84;15292490;19;20025;-85
2023/05/28 16:46:56;;;;;;;1.75;1.02;;;;;;;27.25;34.70;98516.59;15295936;19;20027;-83
2023/05/28 16:52:24;;;;;;;2.30;1.00;;;;;;;27.11;35.44;98512.69;15302227;19;20010;-83
2023/05/28 16:57:55;;;;;;;1.95;1.00;;;;;;;27.11;35.33;98502.44;15302408;19;20022;-84
2023/05/28 17:03:20;;;;;;;1.50;0.90;;;;;;;27.06;35.88;98511.53;15299499;19;20467;-86
2023/05/28 17:08:46;;;;;;;1.90;1.10;;;;;;;27.13;35.70;98508.53;15306165;19;20279;-84
2023/05/28 17:14:14;;;;;;;1.40;1.00;;;;;;;26.98;35.17;98511.19;15294367;19;20003;-84
2023/05/28 17:19:40;;;;;;;1.83;1.00;;;;;;;26.76;35.32;98510.19;15304656;19;20027;-88
2023/05/28 17:25:10;;;;;;;2.08;1.00;;;;;;;26.57;35.35;98511.72;15291546;19;20014;-85
2023/05/28 17:30:39;;;;;;;1.80;0.95;;;;;;;26.35;35.96;98506.28;15305249;19;20015;-84
2023/05/28 17:36:05;;;;;;;2.25;1.10;;;;;;;26.20;36.87;98513.34;15300778;19;20073;-83
2023/05/28 17:41:30;;;;;;;5.50;1.23;;;;;;;26.11;36.91;98510.22;15304195;19;20065;-84
2023/05/28 17:46:58;;;;;;;3.20;1.10;;;;;;;25.94;36.71;98515.81;14799568;19;9999993;-84
2023/05/28 17:52:25;;;;;;;3.25;1.08;;;;;;;25.85;36.99;98518.22;15309110;19;20006;-84
2023/05/28 17:57:51;;;;;;;2.13;1.20;;;;;;;25.69;37.01;98522.72;15307702;19;20077;-83
2023/05/28 18:03:22;;;;;;;1.58;0.95;;;;;;;25.52;37.13;98517.28;15315041;19;20019;-84
2023/05/28 18:09:07;;;;;;;3.22;0.93;;;;;;;25.28;37.71;98513.06;15315388;19;20466;-83
2023/05/28 18:14:36;;;;;;;2.47;1.17;;;;;;;25.06;38.25;98511.97;15320184;19;20015;-84
2023/05/28 18:20:05;;;;;;;1.90;1.10;;;;;;;24.73;38.92;98519.19;15306486;19;20701;-83
2023/05/28 18:25:33;;;;;;;2.67;1.08;;;;;;;24.29;40.11;98522.56;15301695;19;20039;-86
2023/05/28 18:31:05;;;;;;;4.55;1.10;;;;;;;23.72;40.66;98528.09;15300752;19;20359;-85
2023/05/28 18:36:34;;;;;;;3.58;0.90;;;;;;;23.27;39.99;98519.50;15299445;19;20022;-83
2023/05/28 18:41:58;;;;;;;4.60;1.02;;;;;;;22.88;40.50;98524.63;15294013;19;20049;-83
2023/05/28 18:47:24;;;;;;;3.03;1.10;;;;;;;22.38;41.41;98520.38;15307024;19;20086;-85
2023/05/28 18:52:52;;;;;;;4.50;1.15;;;;;;;21.92;42.10;98528.28;15302556;19;20493;-84
2023/05/28 18:58:17;;;;;;;3.65;1.10;;;;;;;21.48;42.39;98537.44;15303766;19;20014;-83
2023/05/28 19:03:44;;;;;;;4.07;1.27;;;;;;;21.19;43.04;98542.63;15298850;19;20478;-83
2023/05/28 19:09:12;;;;;;;5.57;1.20;;;;;;;20.94;43.92;98551.75;15305999;19;20545;-83
2023/05/28 19:14:37;;;;;;;3.50;1.13;;;;;;;20.68;44.15;98546.47;15314536;19;20022;-83
